Time;durP1;ratioP1;P1;durP2;ratioP2;P2;SDS_P1;SDS_P2;PMS_P1;PMS_P2;Temp;Humidity;BMP_temperature;BMP_pressure;BME280_temperature;BME280_humidity;BME280_pressure;Samples;Min_cycle;Max_cycle;Signal;HPM_P1;HPM_P2
2024/03/18 00:01:11;;;;;;;0.17;0.17;;;;;;;2.17;67.14;101858.00;15490807;28;20046;-51
2024/03/18 00:08:46;;;;;;;0.08;0.08;;;;;;;1.60;68.63;101836.19;15482876;28;20050;-51
2024/03/18 00:16:22;;;;;;;0.30;0.30;;;;;;;1.33;70.13;101841.06;15480552;28;20050;-52
2024/03/18 00:23:56;;;;;;;0.73;0.30;;;;;;;1.42;69.66;101853.56;15472876;28;20069;-52
2024/03/18 00:31:31;;;;;;;0.00;0.00;;;;;;;1.75;68.87;101852.63;15468768;28;20042;-50
2024/03/18 00:39:06;;;;;;;0.00;0.00;;;;;;;0.85;72.03;101839.56;15488255;28;20043;-52
2024/03/18 00:46:41;;;;;;;0.00;0.00;;;;;;;0.23;75.38;101840.78;15480573;28;20049;-50
2024/03/18 00:54:15;;;;;;;0.03;0.03;;;;;;;0.48;74.03;101837.13;15477458;28;20077;-50
2024/03/18 01:01:53;;;;;;;0.00;0.00;;;;;;;0.20;74.07;101829.63;15483935;28;20038;-51
2024/03/18 01:09:27;;;;;;;0.00;0.00;;;;;;;0.08;74.74;101822.63;15488732;28;20167;-51
2024/03/18 01:17:05;;;;;;;0.00;0.00;;;;;;;-0.24;75.60;101817.09;15475659;28;20058;-52
2024/03/18 01:24:39;;;;;;;0.00;0.00;;;;;;;0.55;72.73;101820.78;15500242;28;20056;-51
2024/03/18 01:32:15;;;;;;;0.13;0.13;;;;;;;0.34;73.45;101812.72;15491060;28;20045;-50
2024/03/18 01:39:49;;;;;;;0.00;0.00;;;;;;;0.01;74.13;101811.69;15498952;28;20046;-51
2024/03/18 01:47:25;;;;;;;0.00;0.00;;;;;;;0.15;73.96;101808.00;15491220;28;20443;-51
2024/03/18 01:55:01;;;;;;;0.00;0.00;;;;;;;-0.22;74.92;101792.28;15497127;28;20089;-50
2024/03/18 02:02:37;;;;;;;0.00;0.00;;;;;;;0.10;73.07;101791.69;15493087;28;20040;-52
2024/03/18 02:10:13;;;;;;;0.00;0.00;;;;;;;-0.46;75.72;101779.13;15487883;28;20089;-51
2024/03/18 02:17:50;;;;;;;1.42;1.33;;;;;;;-0.31;74.58;101769.25;15488699;28;20500;-52
2024/03/18 02:25:25;;;;;;;0.15;0.15;;;;;;;-0.77;76.92;101769.97;15489956;28;20042;-51
2024/03/18 02:32:58;;;;;;;0.10;0.10;;;;;;;-0.84;77.46;101761.69;15488784;28;20121;-51
2024/03/18 02:40:33;;;;;;;0.10;0.10;;;;;;;-0.68;76.44;101750.00;15487296;28;20042;-51
2024/03/18 02:48:06;;;;;;;0.00;0.00;;;;;;;-0.45;75.14;101741.25;15485391;28;20045;-52
2024/03/18 02:55:43;;;;;;;1.40;0.45;;;;;;;0.46;71.81;101740.44;15487071;28;20145;-51
2024/03/18 03:03:17;;;;;;;0.00;0.00;;;;;;;0.28;71.55;101736.59;15489969;28;20046;-49
2024/03/18 03:10:52;;;;;;;0.00;0.00;;;;;;;0.04;72.78;101720.84;15464552;28;20138;-52
2024/03/18 03:18:25;;;;;;;0.00;0.00;;;;;;;-0.40;74.23;101725.91;15493398;28;20057;-52
2024/03/18 03:26:01;;;;;;;0.10;0.10;;;;;;;0.35;71.04;101724.63;15491219;28;20061;-51
2024/03/18 03:33:39;;;;;;;0.22;0.22;;;;;;;0.03;71.32;101729.75;15492456;28;20092;-51
2024/03/18 03:41:15;;;;;;;0.00;0.00;;;;;;;-0.61;74.31;101717.78;15492786;28;20057;-50
2024/03/18 03:48:49;;;;;;;0.00;0.00;;;;;;;-1.13;76.41;101721.59;15481837;28;20043;-51
2024/03/18 03:56:25;;;;;;;0.00;0.00;;;;;;;-0.66;75.36;101714.66;15457442;28;20046;-51
2024/03/18 04:03:59;;;;;;;0.05;0.05;;;;;;;-0.86;75.70;101713.50;15491105;28;20050;-51
2024/03/18 04:11:34;;;;;;;0.00;0.00;;;;;;;-1.01;76.78;101711.16;15486877;28;20129;-48
2024/03/18 04:19:09;;;;;;;0.00;0.00;;;;;;;-0.89;76.27;101713.72;15528902;23;20113;-52
2024/03/18 04:26:47;;;;;;;0.08;0.08;;;;;;;-1.52;77.68;101712.13;15547703;28;20241;-51
2024/03/18 04:34:22;;;;;;;0.00;0.00;;;;;;;-0.61;75.94;101707.25;15539459;28;20043;-49
2024/03/18 04:42:08;;;;;;;0.00;0.00;;;;;;;-0.31;73.07;101717.31;15534117;28;20056;-49
2024/03/18 04:49:45;;;;;;;0.00;0.00;;;;;;;-0.46;74.13;101710.56;15532204;28;20039;-49
2024/03/18 04:57:20;;;;;;;0.30;0.30;;;;;;;-1.01;76.40;101712.00;15542201;28;20524;-52
2024/03/18 05:04:54;;;;;;;0.00;0.00;;;;;;;-0.45;74.28;101716.69;15538616;28;20042;-50
2024/03/18 05:12:31;;;;;;;0.00;0.00;;;;;;;-0.90;75.61;101713.84;15560360;28;20125;-50
2024/03/18 05:20:09;;;;;;;0.00;0.00;;;;;;;-0.83;73.63;101662.38;15535585;28;20100;-50
2024/03/18 05:27:44;;;;;;;0.00;0.00;;;;;;;-1.33;76.98;101716.94;15550921;28;20046;-52
2024/03/18 05:35:18;;;;;;;0.00;0.00;;;;;;;-0.96;76.77;101709.84;15545942;28;20160;-50
2024/03/18 05:42:55;;;;;;;0.15;0.15;;;;;;;1.10;69.51;101697.47;15550452;28;20052;-50
2024/03/18 05:50:32;;;;;;;0.00;0.00;;;;;;;2.22;63.19;101716.25;15539232;28;20046;-46
2024/03/18 05:58:11;;;;;;;0.22;0.22;;;;;;;0.10;70.55;101709.84;15549381;28;20081;-47
2024/03/18 06:05:45;;;;;;;0.00;0.00;;;;;;;0.29;70.13;101709.25;15548605;28;20049;-51
2024/03/18 06:13:20;;;;;;;0.20;0.20;;;;;;;-0.11;72.70;101699.97;15554656;28;20049;-49
2024/03/18 06:20:56;;;;;;;0.00;0.00;;;;;;;-0.09;73.45;101705.16;15534900;28;20515;-50
2024/03/18 06:28:33;;;;;;;0.10;0.10;;;;;;;0.13;73.05;101714.88;15549188;28;20075;-48
2024/03/18 06:36:09;;;;;;;0.00;0.00;;;;;;;0.28;71.83;101719.00;15533898;28;20042;-47
2024/03/18 06:43:45;;;;;;;0.00;0.00;;;;;;;0.72;70.58;101712.00;15525614;28;20499;-49
2024/03/18 06:51:28;;;;;;;0.10;0.10;;;;;;;1.78;65.87;101712.09;15541336;28;20061;-53
2024/03/18 06:59:13;;;;;;;0.00;0.00;;;;;;;2.59;62.73;101705.13;15548351;28;20080;-50
2024/03/18 07:06:50;;;;;;;0.00;0.00;;;;;;;3.48;59.11;101695.31;15546286;28;20104;-51
2024/03/18 07:14:25;;;;;;;0.00;0.00;;;;;;;3.77;57.85;101689.97;15528389;28;20133;-50
2024/03/18 07:22:01;;;;;;;0.65;0.32;;;;;;;4.05;56.72;101688.22;15544340;28;20054;-51
2024/03/18 07:29:36;;;;;;;0.00;0.00;;;;;;;3.82;57.02;101686.88;15536229;28;20510;-49
2024/03/18 07:37:10;;;;;;;0.10;0.10;;;;;;;4.31;55.52;101691.09;15525021;28;20042;-48
2024/03/18 07:44:45;;;;;;;0.15;0.10;;;;;;;4.51;54.56;101675.88;15511947;28;20045;-50
2024/03/18 07:52:20;;;;;;;0.00;0.00;;;;;;;4.90;54.30;101673.03;15541236;28;20053;-48
2024/03/18 07:59:55;;;;;;;0.00;0.00;;;;;;;5.28;52.88;101673.72;15523873;28;20102;-52
2024/03/18 08:07:35;;;;;;;0.20;0.20;;;;;;;5.73;52.11;101670.06;15525481;28;20088;-49
2024/03/18 08:15:18;;;;;;;0.00;0.00;;;;;;;4.84;52.59;101610.59;15534779;28;20050;-49
2024/03/18 08:22:51;;;;;;;0.00;0.00;;;;;;;5.78;51.38;101660.66;15507849;28;20399;-48
2024/03/18 08:30:26;;;;;;;0.00;0.00;;;;;;;5.98;50.16;101647.97;15529540;28;20462;-52
2024/03/18 08:38:00;;;;;;;0.00;0.00;;;;;;;6.55;45.73;101605.56;15530637;28;20521;-49
2024/03/18 08:45:38;;;;;;;0.00;0.00;;;;;;;6.20;45.81;101654.59;15513246;28;20145;-48
2024/03/18 08:53:12;;;;;;;1.10;0.30;;;;;;;6.24;45.88;101658.59;15513117;28;20053;-50
2024/03/18 09:00:48;;;;;;;0.00;0.00;;;;;;;6.92;45.02;101649.66;15523394;28;20128;-47
2024/03/18 09:08:22;;;;;;;0.00;0.00;;;;;;;6.78;45.36;101647.63;15533681;28;20512;-53
2024/03/18 09:15:58;;;;;;;0.00;0.00;;;;;;;6.59;45.21;101644.25;15531045;28;20065;-53
2024/03/18 09:23:31;;;;;;;0.00;0.00;;;;;;;7.15;44.68;101645.38;15514852;28;20038;-50
2024/03/18 09:31:07;;;;;;;0.22;0.20;;;;;;;6.95;45.02;101636.00;15554590;28;20045;-50
2024/03/18 09:38:41;;;;;;;0.00;0.00;;;;;;;7.11;45.36;101633.34;15544707;28;20119;-52
2024/03/18 09:46:18;;;;;;;0.00;0.00;;;;;;;7.86;43.64;101625.09;15525865;28;20046;-49
2024/03/18 09:53:52;;;;;;;0.00;0.00;;;;;;;8.20;42.51;101602.59;15535590;28;20046;-51
2024/03/18 10:01:28;;;;;;;0.00;0.00;;;;;;;8.41;41.60;101608.22;15540517;28;20376;-49
2024/03/18 10:09:03;;;;;;;0.00;0.00;;;;;;;8.84;40.97;101605.16;15514514;28;20046;-47
2024/03/18 10:16:39;;;;;;;0.00;0.00;;;;;;;9.16;40.22;101599.53;15528943;28;20045;-49
2024/03/18 10:24:14;;;;;;;0.00;0.00;;;;;;;9.73;37.95;101583.94;15530068;28;20584;-47
2024/03/18 10:31:50;;;;;;;0.00;0.00;;;;;;;10.36;37.45;101596.00;15556469;28;20049;-48
2024/03/18 10:39:34;;;;;;;0.00;0.00;;;;;;;10.12;38.85;101586.38;15537700;28;20049;-53
2024/03/18 10:47:11;;;;;;;;;;;;;;;10.07;36.94;101583.38;15540467;28;20100;-47
2024/03/18 10:54:45;;;;;;;0.00;0.00;;;;;;;10.40;34.98;101579.31;15537701;28;19921;-48
2024/03/18 11:02:27;;;;;;;0.00;0.00;;;;;;;10.39;35.84;101574.94;15534686;28;20046;-50
2024/03/18 11:10:03;;;;;;;0.10;0.10;;;;;;;11.01;34.23;101572.72;15508350;28;20125;-58
2024/03/18 11:17:45;;;;;;;0.55;0.55;;;;;;;12.08;33.58;101565.25;15525326;28;20050;-52
2024/03/18 11:25:22;;;;;;;0.00;0.00;;;;;;;12.74;32.78;101554.69;15541591;28;20052;-53
2024/03/18 11:33:08;;;;;;;0.00;0.00;;;;;;;11.04;34.58;101548.16;15516269;28;20132;-50
2024/03/18 11:40:42;;;;;;;0.00;0.00;;;;;;;12.11;33.67;101532.53;15516714;28;20157;-48
2024/03/18 11:48:18;;;;;;;0.00;0.00;;;;;;;11.11;35.91;101532.94;15545080;28;20473;-49
2024/03/18 11:55:53;;;;;;;0.65;0.43;;;;;;;9.76;35.23;101521.94;15531720;28;20062;-49
2024/03/18 12:03:28;;;;;;;0.15;0.05;;;;;;;11.26;34.56;101509.47;15546766;28;20073;-50
2024/03/18 12:11:07;;;;;;;0.00;0.00;;;;;;;10.43;34.60;101509.16;15547872;28;20057;-47
2024/03/18 12:18:42;;;;;;;0.00;0.00;;;;;;;10.09;34.77;101504.41;15546114;28;20086;-47
2024/03/18 12:34:11;;;;;;;0.10;0.10;;;;;;;10.15;34.00;101495.59;15533143;28;20121;-50
2024/03/18 12:41:46;;;;;;;0.05;0.05;;;;;;;11.36;32.96;101493.00;15532603;28;20487;-45
2024/03/18 12:49:23;;;;;;;0.43;0.43;;;;;;;9.75;35.33;101496.97;15522501;28;20133;-51
2024/03/18 12:56:58;;;;;;;0.00;0.00;;;;;;;10.52;35.63;101484.88;15546081;28;20050;-51
2024/03/18 13:04:33;;;;;;;;;;;;;;;11.09;33.24;101486.59;15535161;28;20069;-46
2024/03/18 13:12:07;;;;;;;0.00;0.00;;;;;;;10.79;34.13;101486.78;15540789;28;20035;-48
2024/03/18 13:19:43;;;;;;;0.00;0.00;;;;;;;10.24;35.73;101480.25;15541038;28;20492;-49
2024/03/18 13:27:19;;;;;;;0.00;0.00;;;;;;;11.26;34.24;101474.53;15549221;28;20050;-47
2024/03/18 13:34:54;;;;;;;0.00;0.00;;;;;;;11.07;34.49;101470.69;15534778;28;20347;-50
2024/03/18 13:42:28;;;;;;;0.00;0.00;;;;;;;10.79;34.84;101467.97;15548259;28;20049;-49
2024/03/18 13:50:07;;;;;;;0.10;0.10;;;;;;;9.86;36.26;101464.31;15552014;28;20049;-52
2024/03/18 13:57:41;;;;;;;0.00;0.00;;;;;;;9.52;37.34;101456.03;15561880;28;20148;-49
2024/03/18 14:05:17;;;;;;;0.00;0.00;;;;;;;9.69;37.34;101452.94;15538742;28;20476;-48
2024/03/18 14:12:52;;;;;;;0.00;0.00;;;;;;;9.07;37.79;101455.19;15553118;28;20045;-45
2024/03/18 14:20:28;;;;;;;0.00;0.00;;;;;;;8.28;38.41;101454.63;15553612;28;20438;-46
2024/03/18 14:28:04;;;;;;;0.00;0.00;;;;;;;8.55;38.89;101451.47;15549089;28;20050;-51
2024/03/18 14:35:40;;;;;;;0.00;0.00;;;;;;;8.24;39.24;101451.47;15528482;28;20034;-47
2024/03/18 14:43:15;;;;;;;0.00;0.00;;;;;;;8.07;39.27;101457.97;15546354;28;20486;-49
2024/03/18 14:50:53;;;;;;;0.00;0.00;;;;;;;8.25;39.27;101449.63;15510606;28;20284;-50
2024/03/18 14:58:28;;;;;;;0.00;0.00;;;;;;;8.24;40.74;101456.00;15533290;28;20046;-47
2024/03/18 15:06:05;;;;;;;0.00;0.00;;;;;;;8.52;39.53;101457.16;15538381;28;20050;-50
2024/03/18 15:13:43;;;;;;;7.78;0.25;;;;;;;8.31;40.96;101446.28;15529665;28;20538;-50
2024/03/18 15:21:19;;;;;;;0.30;0.30;;;;;;;8.22;40.55;101448.16;15539662;28;20103;-51
2024/03/18 15:28:52;;;;;;;0.00;0.00;;;;;;;7.87;41.58;101438.84;15549341;28;20053;-50
2024/03/18 15:36:28;;;;;;;0.00;0.00;;;;;;;7.81;41.70;101440.38;15519880;28;20065;-48
2024/03/18 15:44:03;;;;;;;0.00;0.00;;;;;;;8.26;42.03;101444.13;15548845;28;20037;-47
2024/03/18 15:51:38;;;;;;;0.30;0.30;;;;;;;8.10;41.11;101447.72;15536057;28;20080;-48
2024/03/18 15:59:13;;;;;;;1.00;0.28;;;;;;;7.57;43.56;101444.00;15530568;28;20117;-51
2024/03/18 16:06:51;;;;;;;0.10;0.10;;;;;;;7.45;43.00;101455.22;15538928;28;20431;-46
2024/03/18 16:14:25;;;;;;;0.00;0.00;;;;;;;7.33;44.21;101452.94;15544593;28;20516;-50
2024/03/18 16:22:03;;;;;;;0.00;0.00;;;;;;;7.30;44.63;101463.94;15534086;28;20100;-50
2024/03/18 16:29:37;;;;;;;0.22;0.15;;;;;;;7.25;45.14;101470.81;15545694;28;20044;-49
2024/03/18 16:37:12;;;;;;;0.00;0.00;;;;;;;6.99;45.32;101466.50;15513554;28;20448;-48
2024/03/18 16:44:47;;;;;;;0.00;0.00;;;;;;;6.45;47.32;101482.19;15533781;28;20112;-52
2024/03/18 16:52:23;;;;;;;0.00;0.00;;;;;;;6.41;47.27;101488.84;15529236;28;20533;-51
2024/03/18 16:59:57;;;;;;;0.00;0.00;;;;;;;6.22;47.42;101486.47;15523167;28;20515;-50
2024/03/18 17:07:33;;;;;;;0.03;0.03;;;;;;;6.05;48.82;101507.75;15524507;28;20444;-53
2024/03/18 17:15:08;;;;;;;0.00;0.00;;;;;;;6.24;48.39;101509.31;15539998;28;20045;-49
2024/03/18 17:22:43;;;;;;;0.00;0.00;;;;;;;6.05;49.51;101518.41;15509509;28;20055;-51
2024/03/18 17:30:18;;;;;;;0.00;0.00;;;;;;;6.18;49.03;101523.28;15536911;28;20117;-52
2024/03/18 17:37:53;;;;;;;0.50;0.50;;;;;;;5.42;51.50;101536.56;15541282;28;20108;-53
2024/03/18 17:45:29;;;;;;;0.03;0.03;;;;;;;5.36;52.24;101546.00;15531011;28;20096;-52
2024/03/18 17:53:05;;;;;;;0.05;0.05;;;;;;;5.13;52.92;101551.00;15535939;28;20045;-51
2024/03/18 18:00:41;;;;;;;0.00;0.00;;;;;;;5.08;52.98;101555.94;15545210;28;20046;-51
2024/03/18 18:08:17;;;;;;;0.10;0.10;;;;;;;5.04;53.12;101568.72;15544649;28;20099;-52
2024/03/18 18:15:51;;;;;;;0.38;0.38;;;;;;;4.13;55.35;101573.28;15556612;28;20054;-54
2024/03/18 18:23:26;;;;;;;0.00;0.00;;;;;;;4.18;54.99;101588.78;15530642;28;20073;-53
2024/03/18 18:31:00;;;;;;;0.00;0.00;;;;;;;4.06;55.66;101594.28;15527953;28;20108;-50
2024/03/18 18:38:40;;;;;;;0.03;0.03;;;;;;;3.73;57.31;101608.97;15519179;28;20058;-49
2024/03/18 18:46:14;;;;;;;0.00;0.00;;;;;;;3.71;57.42;101615.38;15507390;28;20048;-54
2024/03/18 18:53:49;;;;;;;0.85;0.85;;;;;;;3.62;57.87;101610.94;15535928;28;20133;-51
2024/03/18 19:01:23;;;;;;;0.05;0.05;;;;;;;3.48;58.43;101620.16;15528634;28;20042;-52
2024/03/18 19:09:06;;;;;;;2.60;1.55;;;;;;;2.80;60.03;101622.88;15522381;28;20113;-48
2024/03/18 19:16:39;;;;;;;0.05;0.05;;;;;;;3.05;59.18;101642.69;15522169;28;20050;-50
2024/03/18 19:24:15;;;;;;;0.00;0.00;;;;;;;2.53;60.22;101648.19;15516948;28;20044;-53
2024/03/18 19:31:50;;;;;;;1.20;1.10;;;;;;;2.56;60.58;101649.72;15524907;28;20045;-50
2024/03/18 19:39:26;;;;;;;0.00;0.00;;;;;;;2.51;60.83;101657.22;15525877;28;20046;-56
2024/03/18 19:47:00;;;;;;;1.48;0.70;;;;;;;2.41;61.48;101662.50;15517988;28;20065;-54
2024/03/18 19:54:36;;;;;;;0.00;0.00;;;;;;;2.46;60.99;101670.06;15526352;28;20131;-48
2024/03/18 20:02:10;;;;;;;0.00;0.00;;;;;;;2.25;61.30;101673.63;15535442;28;20151;-50
2024/03/18 20:09:45;;;;;;;0.80;0.80;;;;;;;2.16;62.17;101682.34;15499987;28;20061;-50
2024/03/18 20:17:19;;;;;;;0.00;0.00;;;;;;;1.95;62.44;101692.97;15519247;28;20050;-56
2024/03/18 20:24:54;;;;;;;0.52;0.45;;;;;;;1.98;62.16;101695.34;15483362;28;20100;-54
2024/03/18 20:32:28;;;;;;;0.00;0.00;;;;;;;2.06;62.09;101702.66;15510161;28;20060;-49
2024/03/18 20:40:09;;;;;;;0.00;0.00;;;;;;;1.91;61.59;101703.94;15514656;28;20049;-51
2024/03/18 20:47:44;;;;;;;0.05;0.05;;;;;;;1.90;61.76;101699.63;15499755;28;20034;-51
2024/03/18 20:55:21;;;;;;;0.30;0.30;;;;;;;1.73;62.57;101695.78;15503776;28;20046;-55
2024/03/18 21:02:55;;;;;;;0.00;0.00;;;;;;;1.63;63.04;101708.94;15515771;28;20125;-48
2024/03/18 21:10:30;;;;;;;0.00;0.00;;;;;;;1.44;62.69;101714.91;15489058;28;20128;-49
2024/03/18 21:18:05;;;;;;;1.30;0.55;;;;;;;1.39;62.95;101721.53;15516450;28;20046;-52
2024/03/18 21:25:40;;;;;;;0.00;0.00;;;;;;;1.16;63.95;101711.03;15501921;28;20464;-52
2024/03/18 21:33:14;;;;;;;10.65;2.47;;;;;;;0.70;64.87;101714.75;15547187;28;20052;-50
2024/03/18 21:40:59;;;;;;;0.00;0.00;;;;;;;0.74;65.12;101725.91;15543075;28;20042;-51
2024/03/18 21:48:33;;;;;;;0.00;0.00;;;;;;;1.32;62.84;101729.16;15546624;28;20034;-56
2024/03/18 21:56:08;;;;;;;0.43;0.43;;;;;;;0.95;64.61;101726.00;15541877;28;20054;-46
2024/03/18 22:03:42;;;;;;;0.00;0.00;;;;;;;0.96;64.10;101736.44;15549444;28;20046;-51
2024/03/18 22:11:17;;;;;;;0.10;0.10;;;;;;;0.91;64.94;101738.63;15548807;28;20053;-47
2024/03/18 22:18:52;;;;;;;0.00;0.00;;;;;;;1.47;61.88;101735.81;15570098;23;20046;-51
2024/03/18 22:26:28;;;;;;;0.00;0.00;;;;;;;0.87;63.91;101725.78;15532358;28;20045;-51
2024/03/18 22:34:01;;;;;;;0.00;0.00;;;;;;;0.65;65.53;101737.19;15496931;28;20074;-48
2024/03/18 22:41:37;;;;;;;0.00;0.00;;;;;;;0.72;64.63;101746.34;15500669;28;20046;-50
2024/03/18 22:49:12;;;;;;;0.00;0.00;;;;;;;0.50;66.51;101741.91;15499155;28;20050;-49
2024/03/18 22:56:48;;;;;;;0.00;0.00;;;;;;;0.59;65.84;101746.47;15487972;28;20057;-49
2024/03/18 23:04:22;;;;;;;0.65;0.40;;;;;;;0.42;66.77;101747.78;15494941;28;20531;-48
2024/03/18 23:11:57;;;;;;;0.00;0.00;;;;;;;-0.01;68.05;101737.03;15484747;28;20042;-48
2024/03/18 23:19:31;;;;;;;0.00;0.00;;;;;;;0.62;65.77;101751.50;15493145;28;20430;-51
2024/03/18 23:27:08;;;;;;;0.00;0.00;;;;;;;0.60;65.61;101753.41;15483563;28;20097;-52
2024/03/18 23:34:41;;;;;;;0.00;0.00;;;;;;;0.19;66.87;101756.66;15484756;28;20048;-51
2024/03/18 23:42:17;;;;;;;0.00;0.00;;;;;;;0.11;67.54;101754.59;15483173;28;20051;-48
2024/03/18 23:49:51;;;;;;;0.00;0.00;;;;;;;0.23;66.67;101752.78;15490574;28;20047;-51
2024/03/18 23:57:28;;;;;;;0.00;0.00;;;;;;;-0.18;68.17;101748.91;15489928;28;20428;-48
